Chicago, IL (60290)

9:57 PM CST on December 03, 2016 (GMT -0600)
George Street | | Change Station
Active Advisory: Winter Weather Advisory

Elev 656 ft 41.94 °N, 87.88 °W | Updated 6 minutes ago

Overcast
Overcast
33.3 °F
Feels Like 33 °F
N
1.9
Wind Variable Wind from SSW
Gusts 3.7 mph

Today
High -- | Low -- °F
--% Chance of Precip.
Yesterday
High -- | Low -- °F
Precip. -- in
Pressure 30.30 in
Visibility 10.0 miles
Clouds Few 3500 ft
Scattered Clouds 12000 ft
Overcast 15000 ft
Windchill 33 °F
Dew Point 25 °F
Humidity 72%
Rainfall 0.00 in
Snow Depth Not available.
7:02 AM 4:20 PM
Waxing Crescent, 19% visible
METAR KORD 040351Z 18004KT 10SM FEW035 SCT120 OVC150 M01/M03 A3028 RMK AO2 SLP260 T10061033
Pressure 30.30 in
Visibility 10.0 miles
Clouds Few 3500 ft
Scattered Clouds 12000 ft
Overcast 15000 ft
Windchill 33 °F
Dew Point 25 °F
Humidity 72%
Rainfall 0.00 in
Snow Depth Not available.
7:02 AM 4:20 PM
Waxing Crescent, 19% visible
METAR KORD 040351Z 18004KT 10SM FEW035 SCT120 OVC150 M01/M03 A3028 RMK AO2 SLP260 T10061033

10-Day Weather Forecast

Almanac

Astronomy

Dec. 03, 2016 Rise Set
Actual Time
Civil Twilight
Nautical Twilight
Astronomical Twilight
Moon
Length of Visible Light
Length of Day
Tomorrow will be .
, % of the Moon is Illuminated

Today's Extremes

State Highs State Lows

Community

WunderPhotos

Upload Photos

1,955,573 photos uploaded!

WunderBlog® & News

Nearby

Air Quality

  Air Quality AQ Index Pollutant
Not available.

Snow Depth

Station Depth Elevation

Earthquake Activity

City Distance Mag. Time & Date
Minimum magnitude displayed is 2.5.

Coastal Water Temperatures

Place Temperature

Stations

Nearby Weather Stations

Station Location Temp. Windchill Dew Point Humidity Wind Precip. Elev Updated Type
                   

Watches & Warnings

Winter Weather Advisory
Issued: 8:32 PM CST Dec. 3, 2016 – National Weather Service

... Winter Weather Advisory remains in effect from 7 am to 6 PM
CST Sunday...

* timing... light to moderate snow will begin from west to east
across northern Illinois during Sunday morning and continue
until sunset or slightly after.

* Snow accumulations... 2 to 4 inches of wet snow with the higher
amounts generally northwest of a line from Chicago to
Morris... to Peru.

* Main impact... slippery conditions are expected on untreated
surfaces creating hazardous travel.

* Other impacts... visibility may fall to around one half mile at
times causing an additional travel hazard.

* Note... impacts may be mitigated by mild Road temperatures on
heavily traveled roads... such as in the city of Chicago and
immediate suburbs.

Precautionary/preparedness actions...

A Winter Weather Advisory for snow means that periods of snow
will cause primarily travel difficulties. Be prepared for snow
covered roads and limited visibilities... and use caution while
driving.



Mtf